Time;durP1;ratioP1;P1;durP2;ratioP2;P2;SDS_P1;SDS_P2;PMS_P1;PMS_P2;Temp;Humidity;BMP_temperature;BMP_pressure;BME280_temperature;BME280_humidity;BME280_pressure;Samples;Min_cycle;Max_cycle;Signal;HPM_P1;HPM_P2
2023/05/14 00:01:14;;;;;;;8.30;7.70;;;13.80;99.90;;;;;;6058010;23;20435;-68
2023/05/14 00:03:42;;;;;;;9.33;8.63;;;13.80;99.90;;;;;;6056650;23;20475;-68
2023/05/14 00:06:10;;;;;;;8.50;7.80;;;13.80;99.90;;;;;;6042651;23;20480;-68
2023/05/14 00:08:37;;;;;;;8.57;7.87;;;13.70;99.90;;;;;;6060684;23;20777;-68
2023/05/14 00:11:04;;;;;;;8.17;7.57;;;13.80;99.90;;;;;;6062252;23;20546;-68
2023/05/14 00:13:31;;;;;;;9.10;8.40;;;13.70;99.90;;;;;;6068322;23;20558;-68
2023/05/14 00:15:58;;;;;;;8.37;7.67;;;13.60;99.90;;;;;;6049115;23;20488;-68
2023/05/14 00:18:25;;;;;;;8.10;7.50;;;13.60;99.90;;;;;;6033469;23;20506;-68
2023/05/14 00:20:54;;;;;;;9.17;8.57;;;13.60;99.90;;;;;;6054180;23;20528;-68
2023/05/14 00:23:21;;;;;;;8.80;7.97;;;13.50;99.90;;;;;;6046551;23;20975;-68
2023/05/14 00:25:48;;;;;;;8.23;7.63;;;13.50;99.90;;;;;;6061147;23;20446;-68
2023/05/14 00:28:16;;;;;;;8.40;7.80;;;13.50;99.90;;;;;;6062409;23;20810;-68
2023/05/14 00:30:43;;;;;;;8.60;8.00;;;13.50;99.90;;;;;;6061501;23;20447;-68
2023/05/14 00:33:09;;;;;;;8.30;7.80;;;13.40;99.90;;;;;;6053034;23;20507;-68
2023/05/14 00:35:37;;;;;;;8.90;8.20;;;13.40;99.90;;;;;;6057462;23;20472;-68
2023/05/14 00:38:05;;;;;;;8.80;8.20;;;13.40;99.90;;;;;;6060271;23;20439;-68
2023/05/14 00:40:32;;;;;;;9.57;8.77;;;13.30;99.90;;;;;;6056927;23;20932;-68
2023/05/14 00:43:00;;;;;;;10.13;9.37;;;13.30;99.90;;;;;;6060622;23;20986;-68
2023/05/14 00:45:27;;;;;;;9.87;9.00;;;13.30;99.90;;;;;;6055751;23;20456;-68
2023/05/14 00:47:55;;;;;;;8.77;8.07;;;13.30;99.90;;;;;;6053444;23;20833;-68
2023/05/14 00:50:22;;;;;;;9.27;8.57;;;13.20;99.90;;;;;;6059973;23;20512;-68
2023/05/14 00:52:49;;;;;;;10.53;9.73;;;13.20;99.90;;;;;;6054955;23;20433;-68
2023/05/14 00:55:19;;;;;;;9.40;8.80;;;13.20;99.90;;;;;;6041938;23;20871;-68
2023/05/14 00:57:46;;;;;;;9.30;8.63;;;13.20;99.90;;;;;;6061001;23;21000;-68
2023/05/14 01:00:14;;;;;;;9.13;8.47;;;13.20;99.90;;;;;;6055153;23;20894;-68
2023/05/14 01:02:41;;;;;;;9.10;8.30;;;13.10;99.90;;;;;;6053736;23;21010;-68
2023/05/14 01:05:09;;;;;;;9.17;8.47;;;13.10;99.90;;;;;;6058386;23;20833;-68
2023/05/14 01:07:45;;;;;;;9.48;8.77;;;13.00;99.90;;;;;;6061521;23;20431;-68
2023/05/14 01:10:17;;;;;;;9.53;8.70;;;13.00;99.90;;;;;;6056171;23;20197;-68
2023/05/14 01:12:52;;;;;;;10.60;9.80;;;12.90;99.90;;;;;;6058144;23;20523;-67
2023/05/14 01:15:22;;;;;;;9.80;9.00;;;12.90;99.90;;;;;;6055531;23;20516;-68
2023/05/14 01:17:53;;;;;;;9.70;9.00;;;12.80;99.90;;;;;;6058630;23;20801;-68
2023/05/14 01:20:21;;;;;;;11.40;10.60;;;12.80;99.90;;;;;;6053220;23;20443;-68
2023/05/14 01:22:49;;;;;;;11.17;10.27;;;12.70;99.90;;;;;;6050940;23;20443;-68
2023/05/14 01:25:16;;;;;;;10.73;9.83;;;12.70;99.90;;;;;;6047554;23;20539;-68
2023/05/14 01:27:52;;;;;;;11.53;10.63;;;12.60;99.90;;;;;;6058583;23;20479;-68
2023/05/14 01:30:23;;;;;;;10.20;9.50;;;12.60;99.90;;;;;;6051363;23;20768;-68
2023/05/14 01:32:53;;;;;;;11.10;10.20;;;12.50;99.90;;;;;;6055420;23;20193;-68
2023/05/14 01:35:22;;;;;;;10.32;9.63;;;12.50;99.90;;;;;;6053822;23;20490;-68
2023/05/14 01:37:50;;;;;;;10.93;10.00;;;12.40;99.90;;;;;;6060714;23;20275;-68
2023/05/14 01:40:18;;;;;;;10.10;9.40;;;12.40;99.90;;;;;;6051401;23;20633;-67
2023/05/14 01:42:45;;;;;;;10.23;9.35;;;12.40;99.90;;;;;;6048834;23;20195;-68
2023/05/14 01:45:12;;;;;;;10.32;9.52;;;12.30;99.90;;;;;;6060067;23;20656;-68
2023/05/14 01:47:39;;;;;;;9.82;9.13;;;12.30;99.90;;;;;;6057113;23;20196;-68
2023/05/14 01:50:07;;;;;;;9.30;8.60;;;12.30;99.90;;;;;;6057664;23;20185;-68
2023/05/14 01:52:34;;;;;;;10.35;9.30;;;12.20;99.90;;;;;;6055815;23;20239;-68
2023/05/14 01:55:03;;;;;;;9.00;8.30;;;12.20;99.90;;;;;;6058613;23;20193;-68
2023/05/14 01:57:31;;;;;;;8.75;8.05;;;12.10;99.90;;;;;;6058273;23;20267;-67
2023/05/14 01:59:58;;;;;;;10.70;9.85;;;12.10;99.90;;;;;;6040442;23;20573;-68
2023/05/14 02:02:25;;;;;;;9.52;8.73;;;12.10;99.90;;;;;;6058051;23;20189;-68
2023/05/14 02:04:53;;;;;;;9.32;8.63;;;12.10;99.90;;;;;;6061705;23;20210;-67
2023/05/14 02:07:20;;;;;;;9.27;8.50;;;12.00;99.90;;;;;;6060219;23;20192;-68
2023/05/14 02:09:47;;;;;;;9.57;8.88;;;12.00;99.90;;;;;;6059993;23;20196;-68
2023/05/14 02:12:16;;;;;;;9.10;8.30;;;11.90;99.90;;;;;;6061969;23;20218;-67
2023/05/14 02:14:43;;;;;;;9.18;8.35;;;11.90;99.90;;;;;;6061781;23;20748;-68
2023/05/14 02:17:14;;;;;;;9.40;8.57;;;11.90;99.90;;;;;;6051541;23;20216;-68
2023/05/14 02:19:41;;;;;;;8.52;7.90;;;11.80;99.90;;;;;;6054061;23;20611;-68
2023/05/14 02:22:08;;;;;;;8.85;8.25;;;11.80;99.90;;;;;;6061087;23;20188;-67
2023/05/14 02:24:36;;;;;;;9.32;8.60;;;11.80;99.90;;;;;;6057967;23;20710;-68
2023/05/14 02:27:04;;;;;;;9.77;8.98;;;11.70;99.90;;;;;;6057471;23;20192;-68
2023/05/14 02:29:32;;;;;;;9.65;8.75;;;11.70;99.90;;;;;;6061773;23;20193;-67
2023/05/14 02:32:00;;;;;;;9.45;8.75;;;11.60;99.90;;;;;;6061242;23;20211;-68
2023/05/14 02:34:26;;;;;;;10.60;9.80;;;11.60;99.90;;;;;;6044193;23;20209;-67
2023/05/14 02:36:54;;;;;;;9.48;8.73;;;11.80;99.90;;;;;;6062660;23;20285;-68
2023/05/14 02:39:21;;;;;;;9.68;8.98;;;11.60;99.90;;;;;;6056812;23;20196;-68
2023/05/14 02:41:48;;;;;;;10.23;9.50;;;11.50;99.90;;;;;;6060336;23;20650;-68
2023/05/14 02:44:15;;;;;;;9.25;8.52;;;11.80;99.90;;;;;;6059917;23;20216;-68
2023/05/14 02:46:44;;;;;;;9.40;8.70;;;11.80;99.90;;;;;;6058719;23;20645;-68
2023/05/14 02:49:12;;;;;;;9.52;8.82;;;11.80;99.90;;;;;;6057712;23;20192;-68
2023/05/14 02:51:39;;;;;;;9.65;8.95;;;11.50;99.90;;;;;;6056335;23;20711;-68
2023/05/14 02:54:06;;;;;;;9.80;9.00;;;11.80;99.90;;;;;;6056608;23;20213;-68
2023/05/14 02:56:33;;;;;;;9.63;8.93;;;11.50;99.90;;;;;;6042378;23;20217;-67
2023/05/14 02:59:00;;;;;;;9.25;8.55;;;11.60;99.90;;;;;;6032619;23;20534;-68
2023/05/14 03:01:28;;;;;;;10.52;9.70;;;11.80;99.90;;;;;;6051069;23;20224;-68
2023/05/14 03:03:56;;;;;;;10.02;9.20;;;11.60;99.90;;;;;;6048448;23;20217;-68
2023/05/14 03:06:23;;;;;;;9.32;8.68;;;11.80;99.90;;;;;;6059600;23;20193;-68
2023/05/14 03:08:50;;;;;;;9.30;8.70;;;11.60;99.90;;;;;;6049186;23;20589;-68
2023/05/14 03:11:17;;;;;;;9.35;8.55;;;11.60;99.90;;;;;;6056048;23;20194;-68
2023/05/14 03:13:44;;;;;;;8.50;7.70;;;11.90;99.90;;;;;;6056175;23;20287;-67
2023/05/14 03:16:12;;;;;;;8.90;8.10;;;11.70;99.90;;;;;;6053060;23;20252;-68
2023/05/14 03:18:39;;;;;;;9.05;8.35;;;11.70;99.90;;;;;;6032464;23;20639;-68
2023/05/14 03:21:08;;;;;;;8.43;7.82;;;12.00;99.90;;;;;;6049854;23;20227;-68
2023/05/14 03:23:35;;;;;;;8.60;7.90;;;12.00;99.90;;;;;;6048038;23;20217;-68
2023/05/14 03:26:02;;;;;;;7.95;7.35;;;11.70;99.90;;;;;;6048876;23;20607;-68
2023/05/14 03:28:29;;;;;;;8.57;7.97;;;11.70;99.90;;;;;;6033626;23;20298;-68
2023/05/14 03:30:56;;;;;;;8.50;7.85;;;11.70;99.90;;;;;;6055682;23;20216;-67
2023/05/14 03:33:23;;;;;;;8.13;7.53;;;12.00;99.90;;;;;;6061802;23;20213;-68
2023/05/14 03:35:51;;;;;;;9.27;8.50;;;11.70;99.90;;;;;;6059894;23;20220;-68
2023/05/14 03:38:19;;;;;;;8.77;8.10;;;11.70;99.90;;;;;;6060856;23;20224;-68
2023/05/14 03:40:46;;;;;;;9.13;8.32;;;11.80;99.90;;;;;;6060100;23;20661;-68
2023/05/14 03:43:13;;;;;;;8.77;8.07;;;12.00;99.90;;;;;;6050672;23;20209;-68
2023/05/14 03:45:41;;;;;;;7.85;7.25;;;12.00;99.90;;;;;;6056839;23;20239;-68
2023/05/14 03:48:08;;;;;;;8.25;7.65;;;12.10;99.90;;;;;;6059179;23;20189;-68
2023/05/14 03:50:35;;;;;;;8.57;7.97;;;11.70;99.90;;;;;;6054509;23;20181;-68
2023/05/14 03:53:02;;;;;;;8.10;7.50;;;11.70;99.90;;;;;;6060814;23;20212;-68
2023/05/14 03:55:31;;;;;;;8.57;7.78;;;12.00;99.90;;;;;;6061184;23;20820;-68
2023/05/14 03:57:57;;;;;;;8.40;7.70;;;12.20;99.90;;;;;;6060834;23;20224;-68
2023/05/14 04:00:25;;;;;;;8.27;7.57;;;11.80;99.90;;;;;;6050309;23;20185;-69
2023/05/14 04:02:52;;;;;;;8.55;7.95;;;11.90;99.90;;;;;;6058946;23;20213;-68
2023/05/14 04:05:19;;;;;;;7.85;7.25;;;12.00;99.90;;;;;;6059060;23;20193;-68
2023/05/14 04:07:46;;;;;;;7.88;7.28;;;12.10;99.90;;;;;;6059185;23;20224;-68
2023/05/14 04:10:13;;;;;;;8.18;7.50;;;12.00;99.90;;;;;;6057438;23;20283;-68
2023/05/14 04:12:42;;;;;;;7.97;7.38;;;11.90;99.90;;;;;;6056867;23;20245;-68
2023/05/14 04:15:10;;;;;;;8.40;7.65;;;12.10;99.90;;;;;;6060658;23;20235;-68
2023/05/14 04:17:37;;;;;;;8.05;7.45;;;12.00;99.90;;;;;;6058919;23;20948;-68
2023/05/14 04:20:05;;;;;;;7.55;7.03;;;12.30;99.90;;;;;;6062884;23;20185;-68
2023/05/14 04:22:32;;;;;;;7.68;7.18;;;12.00;99.90;;;;;;6061074;23;20237;-68
2023/05/14 04:24:59;;;;;;;8.30;7.70;;;12.10;99.90;;;;;;6069160;23;20189;-68
2023/05/14 04:27:28;;;;;;;7.43;6.82;;;12.40;99.90;;;;;;6046540;23;20194;-68
2023/05/14 04:29:57;;;;;;;8.57;7.90;;;12.00;99.90;;;;;;6056887;23;20193;-68
2023/05/14 04:32:24;;;;;;;7.78;7.25;;;12.40;99.90;;;;;;6060854;23;20208;-69
2023/05/14 04:34:52;;;;;;;7.55;6.85;;;12.10;99.90;;;;;;6062361;23;20181;-68
2023/05/14 04:37:19;;;;;;;7.90;7.20;;;12.00;99.90;;;;;;6043208;23;20212;-68
2023/05/14 04:39:46;;;;;;;7.93;7.32;;;12.10;99.90;;;;;;6058797;23;20193;-67
2023/05/14 04:42:14;;;;;;;8.20;7.10;;;12.10;99.90;;;;;;6058641;23;20220;-67
2023/05/14 04:44:42;;;;;;;7.32;6.78;;;12.20;99.90;;;;;;6053284;23;20192;-66
2023/05/14 04:47:10;;;;;;;8.23;7.43;;;12.50;99.90;;;;;;6051587;23;20815;-67
2023/05/14 04:49:37;;;;;;;7.15;6.65;;;12.40;99.90;;;;;;6047376;23;20854;-67
2023/05/14 04:52:06;;;;;;;8.05;7.45;;;12.50;99.90;;;;;;6056484;23;20545;-67
2023/05/14 04:54:33;;;;;;;7.60;7.00;;;12.30;99.90;;;;;;6059148;23;20199;-68
2023/05/14 04:57:02;;;;;;;7.55;6.95;;;12.30;99.90;;;;;;6055844;23;20791;-66
2023/05/14 04:59:29;;;;;;;7.90;7.20;;;12.30;99.90;;;;;;6058030;23;20185;-67
2023/05/14 05:01:56;;;;;;;7.72;7.15;;;12.70;99.90;;;;;;6058337;23;20673;-68
2023/05/14 05:04:25;;;;;;;7.00;6.50;;;12.40;99.90;;;;;;6059662;23;20196;-68
2023/05/14 05:06:52;;;;;;;7.60;6.90;;;12.60;99.90;;;;;;6060568;23;20549;-68
2023/05/14 05:09:19;;;;;;;8.20;7.55;;;12.60;99.90;;;;;;6056994;23;20581;-68
2023/05/14 05:11:46;;;;;;;7.68;7.07;;;12.60;99.90;;;;;;6054527;23;20271;-68
2023/05/14 05:14:13;;;;;;;7.95;7.28;;;12.40;99.90;;;;;;6039527;23;20215;-68
2023/05/14 05:16:40;;;;;;;8.05;7.30;;;12.30;99.90;;;;;;6060923;23;20684;-68
2023/05/14 05:19:08;;;;;;;8.27;7.60;;;12.40;99.90;;;;;;6058217;23;20203;-67
2023/05/14 05:21:38;;;;;;;7.60;7.00;;;12.60;99.90;;;;;;6057256;23;20699;-68
2023/05/14 05:24:05;;;;;;;8.77;7.97;;;12.60;99.90;;;;;;6036614;23;20260;-69
2023/05/14 05:26:35;;;;;;;8.00;7.40;;;12.30;99.90;;;;;;6043429;23;20197;-68
2023/05/14 05:29:02;;;;;;;8.00;7.40;;;12.50;99.90;;;;;;6049645;23;20200;-68
2023/05/14 05:31:29;;;;;;;8.40;7.60;;;12.70;99.90;;;;;;6060099;23;20242;-68
2023/05/14 05:33:58;;;;;;;8.50;7.73;;;12.70;99.90;;;;;;6060768;23;20562;-68
2023/05/14 05:36:26;;;;;;;7.75;7.07;;;12.40;99.90;;;;;;6061045;23;20513;-68
2023/05/14 05:38:55;;;;;;;7.40;6.90;;;12.50;99.90;;;;;;6061352;23;20195;-68
2023/05/14 05:41:22;;;;;;;7.70;7.10;;;12.60;99.90;;;;;;6059796;23;20455;-68
2023/05/14 05:43:49;;;;;;;7.37;6.60;;;12.90;99.90;;;;;;6052122;23;20529;-68
2023/05/14 05:46:16;;;;;;;7.97;7.37;;;12.90;99.90;;;;;;6057742;23;20440;-67
2023/05/14 05:48:43;;;;;;;8.27;7.67;;;12.70;99.90;;;;;;6058858;23;20443;-68
2023/05/14 05:51:11;;;;;;;7.47;6.87;;;12.80;99.90;;;;;;6057321;23;20447;-68
2023/05/14 05:53:38;;;;;;;7.20;6.60;;;12.80;99.90;;;;;;6058717;23;20464;-68
2023/05/14 05:56:07;;;;;;;7.43;6.93;;;12.90;99.90;;;;;;6060172;23;20440;-67
2023/05/14 05:58:34;;;;;;;6.97;6.47;;;13.00;99.90;;;;;;6057791;23;20444;-68
2023/05/14 06:01:01;;;;;;;7.10;6.53;;;13.30;99.90;;;;;;6049255;23;20450;-68
2023/05/14 06:03:29;;;;;;;7.78;7.07;;;13.20;99.90;;;;;;6056473;23;20463;-68
2023/05/14 06:05:56;;;;;;;8.00;7.30;;;12.90;99.90;;;;;;6046043;23;20190;-68
2023/05/14 06:08:23;;;;;;;7.55;6.95;;;13.00;99.90;;;;;;6054246;23;20448;-68
2023/05/14 06:10:50;;;;;;;7.60;7.00;;;13.00;99.90;;;;;;6058258;23;20327;-67
2023/05/14 06:13:19;;;;;;;7.20;6.70;;;13.10;99.90;;;;;;6044350;23;20505;-68
2023/05/14 06:15:46;;;;;;;7.63;7.03;;;13.10;99.90;;;;;;6044880;23;20455;-68
2023/05/14 06:18:13;;;;;;;8.00;7.40;;;13.10;99.90;;;;;;6057705;23;20461;-68
2023/05/14 06:20:40;;;;;;;7.73;7.13;;;13.20;99.90;;;;;;6059383;23;20546;-68
2023/05/14 06:23:07;;;;;;;7.47;6.87;;;13.60;99.90;;;;;;6048418;23;20453;-68
2023/05/14 06:25:34;;;;;;;8.03;7.33;;;13.30;99.90;;;;;;6058966;23;21114;-68
2023/05/14 06:28:02;;;;;;;8.70;8.07;;;13.60;99.90;;;;;;6055181;23;20515;-67
2023/05/14 06:30:30;;;;;;;8.50;7.80;;;13.50;99.90;;;;;;6031598;23;20440;-68
2023/05/14 06:32:58;;;;;;;7.97;7.33;;;13.40;99.90;;;;;;6060346;23;20477;-67
2023/05/14 06:35:24;;;;;;;8.13;7.43;;;13.40;99.90;;;;;;6060779;23;20952;-68
2023/05/14 06:37:51;;;;;;;8.10;7.40;;;13.50;99.90;;;;;;6061616;23;20464;-68
2023/05/14 06:40:19;;;;;;;7.40;6.73;;;13.60;99.90;;;;;;6059048;23;20429;-68
2023/05/14 06:42:46;;;;;;;7.40;6.80;;;13.70;99.90;;;;;;6056346;23;20473;-68
2023/05/14 06:45:13;;;;;;;8.47;7.67;;;13.80;99.90;;;;;;6060757;23;20434;-68
2023/05/14 06:47:42;;;;;;;8.67;7.87;;;13.90;99.90;;;;;;6053471;23;21007;-68
2023/05/14 06:50:10;;;;;;;8.90;8.20;;;14.10;99.90;;;;;;6057625;23;20511;-67
2023/05/14 06:52:37;;;;;;;7.10;6.60;;;14.10;99.90;;;;;;6057642;23;20460;-68
2023/05/14 06:55:05;;;;;;;8.97;8.27;;;14.20;99.90;;;;;;6057234;23;20442;-68
2023/05/14 06:57:33;;;;;;;6.63;5.37;;;14.30;99.90;;;;;;6043692;23;20466;-67
2023/05/14 07:00:00;;;;;;;5.80;5.40;;;14.40;99.90;;;;;;6036456;23;20446;-66
2023/05/14 07:02:27;;;;;;;7.40;6.70;;;14.60;99.90;;;;;;6020594;23;20453;-66
2023/05/14 07:04:56;;;;;;;11.17;10.33;;;15.10;99.90;;;;;;6025758;23;20525;-66
2023/05/14 07:07:23;;;;;;;10.07;9.27;;;15.10;99.90;;;;;;6032483;23;20442;-68
2023/05/14 07:09:50;;;;;;;8.03;7.43;;;15.40;99.90;;;;;;6045090;23;20460;-67
2023/05/14 07:12:18;;;;;;;8.30;7.60;;;15.20;99.90;;;;;;6037360;23;20454;-67
2023/05/14 07:14:45;;;;;;;8.43;7.73;;;15.30;99.90;;;;;;6005252;23;20443;-68
2023/05/14 07:17:12;;;;;;;7.97;7.27;;;15.30;99.90;;;;;;6031293;23;20682;-68
2023/05/14 07:19:39;;;;;;;7.50;6.90;;;15.40;99.90;;;;;;6019622;23;20777;-68
2023/05/14 07:22:08;;;;;;;7.90;7.30;;;15.30;99.90;;;;;;6028795;23;20540;-68
2023/05/14 07:24:35;;;;;;;9.07;8.37;;;15.30;99.90;;;;;;6015829;23;21233;-69
2023/05/14 07:27:02;;;;;;;7.43;6.87;;;15.40;99.90;;;;;;6043370;23;20431;-70
2023/05/14 07:29:30;;;;;;;10.97;10.17;;;15.40;99.90;;;;;;6031664;23;20534;-69
2023/05/14 07:31:57;;;;;;;9.40;8.60;;;15.50;99.90;;;;;;6017825;23;21029;-69
2023/05/14 07:34:24;;;;;;;11.30;10.40;;;15.70;99.90;;;;;;6044568;23;20461;-70
2023/05/14 07:36:52;;;;;;;10.80;10.00;;;16.00;99.90;;;;;;6028810;23;20526;-70
2023/05/14 07:39:21;;;;;;;7.97;7.47;;;16.20;99.90;;;;;;6040995;23;20519;-68
2023/05/14 07:41:49;;;;;;;8.57;7.97;;;16.30;99.90;;;;;;6051313;23;20995;-68
2023/05/14 07:44:16;;;;;;;8.67;7.93;;;16.70;99.90;;;;;;6052989;23;20431;-68
2023/05/14 07:46:43;;;;;;;9.67;8.97;;;16.80;99.90;;;;;;6056828;23;20495;-68
2023/05/14 07:49:10;;;;;;;8.30;7.70;;;17.20;99.90;;;;;;6055331;23;20442;-67
2023/05/14 07:51:37;;;;;;;8.43;7.77;;;17.20;99.90;;;;;;6052705;23;20977;-67
2023/05/14 07:54:04;;;;;;;8.27;7.67;;;17.30;99.90;;;;;;6032965;23;20521;-67
2023/05/14 07:56:33;;;;;;;9.17;8.47;;;17.30;99.90;;;;;;6039356;23;21066;-67
2023/05/14 07:59:00;;;;;;;10.00;9.10;;;17.20;99.90;;;;;;6057546;23;20470;-67
2023/05/14 08:01:28;;;;;;;9.40;8.70;;;17.10;99.90;;;;;;6059649;23;20493;-66
2023/05/14 08:03:55;;;;;;;11.17;10.17;;;16.90;99.90;;;;;;6035680;23;20562;-67
2023/05/14 08:06:22;;;;;;;10.57;9.73;;;16.80;99.90;;;;;;6032407;23;20951;-66
2023/05/14 08:08:49;;;;;;;8.80;8.10;;;16.90;99.90;;;;;;6035346;23;20458;-66
2023/05/14 08:11:16;;;;;;;8.00;7.40;;;17.20;99.90;;;;;;6049490;23;20791;-67
2023/05/14 08:13:45;;;;;;;9.27;8.57;;;17.30;99.90;;;;;;6044130;23;20462;-66
2023/05/14 08:16:12;;;;;;;8.23;7.63;;;17.50;99.90;;;;;;6025816;23;20431;-67
2023/05/14 08:18:40;;;;;;;8.07;7.47;;;17.60;99.90;;;;;;6023663;23;20822;-67
2023/05/14 08:21:07;;;;;;;8.10;7.50;;;17.80;99.90;;;;;;6033093;23;20440;-67
2023/05/14 08:23:34;;;;;;;8.50;7.80;;;18.00;99.90;;;;;;6025892;23;20483;-67
2023/05/14 08:26:01;;;;;;;9.50;8.80;;;18.10;99.90;;;;;;6036019;23;20432;-66
2023/05/14 08:28:29;;;;;;;7.80;7.30;;;18.20;99.90;;;;;;6037682;23;20457;-67
2023/05/14 08:30:57;;;;;;;9.30;8.60;;;18.30;99.90;;;;;;6044116;23;20626;-67
2023/05/14 08:33:24;;;;;;;8.50;7.80;;;18.50;99.90;;;;;;6032220;23;20458;-67
2023/05/14 08:35:53;;;;;;;7.93;7.33;;;18.70;99.90;;;;;;6027429;23;20483;-67
2023/05/14 08:38:20;;;;;;;8.63;8.03;;;18.90;99.90;;;;;;6021858;23;20470;-67
2023/05/14 08:40:49;;;;;;;8.07;7.47;;;19.20;99.90;;;;;;6028858;23;20444;-67
2023/05/14 08:43:20;;;;;;;8.70;8.00;;;19.40;99.90;;;;;;6050017;23;20858;-68
2023/05/14 08:45:52;;;;;;;9.77;9.07;;;19.50;99.90;;;;;;6029753;23;20443;-65
2023/05/14 08:48:22;;;;;;;8.50;7.80;;;19.70;99.90;;;;;;6025811;23;20941;-66
2023/05/14 08:50:50;;;;;;;7.87;7.37;;;19.80;99.90;;;;;;6020070;23;20476;-68
2023/05/14 08:53:17;;;;;;;8.40;7.70;;;19.90;99.90;;;;;;5998310;23;20465;-67
2023/05/14 08:55:45;;;;;;;8.47;7.87;;;20.10;99.90;;;;;;6032542;23;20442;-66
2023/05/14 08:58:13;;;;;;;9.40;8.67;;;20.20;99.90;;;;;;6003082;23;20473;-67
2023/05/14 09:00:41;;;;;;;9.33;8.63;;;20.70;99.90;;;;;;6031762;23;20518;-67
2023/05/14 09:03:08;;;;;;;9.33;8.63;;;20.40;99.90;;;;;;6038507;23;20462;-67
2023/05/14 09:05:37;;;;;;;8.43;7.73;;;20.60;99.90;;;;;;6036559;23;20439;-67
2023/05/14 09:08:04;;;;;;;9.37;8.60;;;20.80;99.90;;;;;;6035434;23;20512;-66
2023/05/14 09:10:31;;;;;;;8.90;8.27;;;21.10;99.90;;;;;;6017760;23;20451;-67
2023/05/14 09:12:59;;;;;;;9.30;8.70;;;21.40;99.90;;;;;;6071685;23;20516;-76
2023/05/14 09:15:28;;;;;;;9.77;9.03;;;21.90;99.90;;;;;;6098595;23;20444;-77
2023/05/14 09:17:56;;;;;;;8.60;8.00;;;22.40;99.90;;;;;;6090388;23;20950;-76
2023/05/14 09:20:24;;;;;;;8.77;8.17;;;22.90;99.90;;;;;;6090939;23;20441;-76
2023/05/14 09:22:54;;;;;;;9.17;8.47;;;23.40;99.90;;;;;;6114164;23;20960;-77
2023/05/14 09:25:27;;;;;;;8.90;8.30;;;23.70;99.90;;;;;;6109385;23;20441;-76
2023/05/14 09:27:54;;;;;;;8.90;8.30;;;23.80;99.90;;;;;;6110804;23;20447;-77
2023/05/14 09:30:21;;;;;;;8.83;8.23;;;23.60;99.90;;;;;;6113606;23;20440;-77
2023/05/14 09:32:49;;;;;;;8.60;8.00;;;23.60;99.90;;;;;;6112310;23;20449;-77
2023/05/14 09:35:19;;;;;;;7.70;7.20;;;23.60;99.90;;;;;;6118252;23;20933;-77
2023/05/14 09:37:48;;;;;;;7.23;6.60;;;23.90;99.90;;;;;;6106613;23;20461;-77
2023/05/14 09:40:18;;;;;;;6.77;6.30;;;24.40;99.90;;;;;;6098700;23;20488;-78
2023/05/14 09:42:47;;;;;;;6.80;6.30;;;24.50;99.90;;;;;;6116001;23;20445;-78
2023/05/14 09:45:14;;;;;;;6.07;5.67;;;24.40;99.90;;;;;;6107852;23;20608;-80
2023/05/14 09:47:41;;;;;;;7.27;6.63;;;24.40;99.90;;;;;;6107555;23;20785;-78
2023/05/14 09:50:08;;;;;;;6.93;6.33;;;24.10;99.90;;;;;;6084339;23;20844;-78
2023/05/14 09:52:36;;;;;;;6.47;6.00;;;23.80;99.90;;;;;;6076448;23;20460;-77
2023/05/14 09:55:03;;;;;;;7.10;6.60;;;23.60;99.90;;;;;;6091549;23;20441;-78
2023/05/14 09:57:32;;;;;;;6.30;5.90;;;23.60;99.90;;;;;;6099329;23;20932;-78
2023/05/14 09:59:59;;;;;;;7.17;6.67;;;23.50;99.90;;;;;;6094797;23;20802;-78
2023/05/14 10:02:36;;;;;;;7.23;6.77;;;23.20;99.90;;;;;;6091886;23;20446;-80
2023/05/14 10:05:05;;;;;;;7.27;6.77;;;23.00;99.90;;;;;;6098025;23;20446;-79
2023/05/14 10:07:38;;;;;;;6.23;5.83;;;22.70;99.90;;;;;;6098168;23;20445;-79
2023/05/14 10:10:08;;;;;;;7.60;7.10;;;22.40;99.90;;;;;;6098345;23;20524;-78
2023/05/14 10:12:40;;;;;;;6.70;6.23;;;21.90;99.90;;;;;;6112187;23;20809;-80
2023/05/14 10:15:16;;;;;;;7.30;6.70;;;21.60;99.90;;;;;;6100714;23;20445;-78
2023/05/14 10:17:47;;;;;;;6.97;6.43;;;21.50;99.90;;;;;;6112717;23;20518;-77
2023/05/14 10:20:16;;;;;;;7.70;7.10;;;21.30;99.90;;;;;;6110698;23;20430;-78
2023/05/14 10:22:43;;;;;;;7.50;6.90;;;21.20;99.90;;;;;;6084309;23;20988;-77
2023/05/14 10:25:11;;;;;;;8.60;7.80;;;21.10;99.90;;;;;;6104049;23;20433;-77
2023/05/14 10:27:40;;;;;;;8.00;7.47;;;21.00;99.90;;;;;;6091193;23;21397;-77
2023/05/14 10:30:11;;;;;;;8.20;7.60;;;20.90;99.90;;;;;;6099177;23;20433;-77
2023/05/14 10:32:40;;;;;;;7.67;7.07;;;20.80;99.90;;;;;;6097979;23;20956;-77
2023/05/14 10:35:19;;;;;;;7.90;7.20;;;20.80;99.90;;;;;;6097915;23;20550;-77
2023/05/14 10:37:46;;;;;;;8.90;8.23;;;20.80;99.90;;;;;;6097036;23;20437;-77
2023/05/14 10:40:14;;;;;;;8.27;7.67;;;20.90;99.90;;;;;;6104262;23;20503;-78
2023/05/14 10:42:43;;;;;;;7.53;7.03;;;21.00;99.90;;;;;;6110988;23;20456;-81
2023/05/14 10:45:12;;;;;;;7.87;7.30;;;21.10;99.90;;;;;;6110025;23;20901;-81
2023/05/14 10:47:42;;;;;;;9.40;8.80;;;21.30;99.90;;;;;;6110359;23;20432;-74
2023/05/14 10:50:11;;;;;;;7.50;7.00;;;21.40;99.90;;;;;;6090439;23;20443;-78
2023/05/14 10:52:41;;;;;;;8.07;7.47;;;21.60;99.90;;;;;;6093548;23;20457;-78
2023/05/14 10:55:12;;;;;;;7.53;7.03;;;21.90;99.90;;;;;;6097662;23;20461;-78
2023/05/14 10:57:41;;;;;;;9.73;6.40;;;22.20;99.90;;;;;;6085173;23;20431;-78
2023/05/14 11:00:12;;;;;;;5.93;5.50;;;22.60;99.90;;;;;;6103502;23;20465;-78
2023/05/14 11:02:42;;;;;;;6.90;6.40;;;23.00;99.90;;;;;;6113809;23;20472;-77
2023/05/14 11:05:12;;;;;;;5.93;5.63;;;23.70;99.90;;;;;;6096658;23;20445;-78
2023/05/14 11:07:41;;;;;;;5.70;5.30;;;24.40;99.90;;;;;;6117334;23;20490;-78
2023/05/14 11:10:10;;;;;;;5.13;4.80;;;25.10;99.90;;;;;;6118056;23;20463;-78
2023/05/14 11:12:39;;;;;;;5.10;4.80;;;25.80;99.90;;;;;;6121563;23;20461;-79
2023/05/14 11:15:09;;;;;;;5.40;5.10;;;26.10;99.90;;;;;;6118642;23;20554;-77
2023/05/14 11:17:39;;;;;;;5.73;5.33;;;26.40;99.90;;;;;;6112190;23;20451;-76
2023/05/14 11:20:07;;;;;;;5.23;4.83;;;26.40;99.60;;;;;;6117228;23;20533;-77
2023/05/14 11:22:35;;;;;;;6.13;5.73;;;26.50;99.00;;;;;;6104800;23;21130;-77
2023/05/14 11:25:03;;;;;;;4.93;4.63;;;26.30;98.30;;;;;;6101966;23;20453;-77
2023/05/14 11:27:31;;;;;;;5.93;5.40;;;26.10;98.40;;;;;;6113418;23;20944;-79
2023/05/14 11:29:59;;;;;;;4.37;4.10;;;25.70;98.30;;;;;;6118660;23;20434;-77
2023/05/14 11:32:27;;;;;;;5.23;4.83;;;25.60;98.40;;;;;;6119159;23;20491;-77
2023/05/14 11:34:56;;;;;;;4.80;4.50;;;25.80;98.50;;;;;;6108071;23;20498;-76
2023/05/14 11:37:23;;;;;;;5.20;4.67;;;26.40;97.40;;;;;;6104570;23;20430;-77
2023/05/14 11:39:52;;;;;;;5.20;4.80;;;26.70;96.70;;;;;;6118991;23;20518;-77
2023/05/14 11:42:20;;;;;;;4.40;4.10;;;27.00;96.40;;;;;;6107819;23;21122;-77
2023/05/14 11:44:48;;;;;;;4.80;4.50;;;26.90;96.40;;;;;;6115529;23;20731;-77
2023/05/14 11:47:17;;;;;;;4.97;4.50;;;26.70;95.80;;;;;;6090911;23;20919;-85
2023/05/14 11:49:45;;;;;;;5.03;4.73;;;26.00;96.00;;;;;;6119002;23;20957;-77
2023/05/14 11:52:15;;;;;;;4.77;4.47;;;25.50;96.50;;;;;;6115540;23;20465;-76
2023/05/14 11:54:43;;;;;;;6.40;5.80;;;25.10;96.60;;;;;;6094185;23;20998;-77
2023/05/14 11:57:12;;;;;;;5.20;4.90;;;24.60;97.40;;;;;;6108322;23;20438;-77
2023/05/14 11:59:40;;;;;;;4.97;4.67;;;24.00;97.60;;;;;;6106593;23;20469;-78
2023/05/14 12:02:10;;;;;;;5.07;4.77;;;23.30;98.70;;;;;;6108614;23;20461;-78
2023/05/14 12:04:37;;;;;;;6.00;5.60;;;22.80;99.30;;;;;;6111205;23;20456;-77
2023/05/14 12:07:09;;;;;;;5.17;4.80;;;22.40;99.40;;;;;;6109264;23;20944;-78
2023/05/14 12:09:47;;;;;;;5.40;5.00;;;22.10;99.80;;;;;;6108831;23;20469;-78
2023/05/14 12:12:17;;;;;;;4.73;4.43;;;22.00;99.90;;;;;;6101831;23;20464;-77
2023/05/14 12:14:45;;;;;;;5.20;4.80;;;21.90;99.90;;;;;;6106440;23;21163;-77
2023/05/14 12:17:14;;;;;;;5.10;4.80;;;21.90;99.90;;;;;;6110316;23;20429;-77
2023/05/14 12:19:43;;;;;;;4.87;4.50;;;21.80;99.90;;;;;;6113720;23;20526;-76
2023/05/14 12:22:10;;;;;;;4.67;4.37;;;21.80;99.90;;;;;;6111088;23;20488;-77
2023/05/14 12:24:40;;;;;;;5.23;4.93;;;21.90;99.90;;;;;;6097781;23;20434;-77
2023/05/14 12:27:09;;;;;;;5.63;5.23;;;22.00;99.90;;;;;;6106815;23;20437;-77
2023/05/14 12:29:37;;;;;;;4.83;4.43;;;22.60;99.90;;;;;;6108402;23;20430;-77
2023/05/14 12:32:09;;;;;;;5.20;4.80;;;23.30;99.90;;;;;;6100529;23;20492;-77
2023/05/14 12:34:37;;;;;;;4.83;4.53;;;24.10;99.90;;;;;;6100717;23;20932;-76
2023/05/14 12:37:04;;;;;;;4.23;3.93;;;24.80;99.60;;;;;;6109463;23;20434;-76
2023/05/14 12:39:33;;;;;;;4.20;4.00;;;25.30;98.50;;;;;;6093393;23;20868;-76
2023/05/14 12:42:02;;;;;;;4.40;4.10;;;25.50;98.20;;;;;;6098692;23;20535;-76
2023/05/14 12:44:30;;;;;;;4.83;4.53;;;25.50;97.60;;;;;;6089744;23;20433;-76
2023/05/14 12:46:57;;;;;;;4.87;4.47;;;25.40;97.50;;;;;;6081348;23;20521;-76
2023/05/14 12:49:24;;;;;;;5.20;4.80;;;25.70;97.30;;;;;;6089228;23;20690;-76